Terminal Aerodrome Forecast
Issued by NWS Green Bay, WI

Home | Current Version | Previous Version | Text Only | Print | Product List | Glossary On
Versions: 1 2 3 4 5 6 7 8 9 10 11 12 13 14 15 16 17 18 19 20 21 22 23 24 25 26 27 28 29 30
000
FTUS43 KGRB 251720
TAFGRB
TAF
KGRB 251720Z 2518/2618 23016G30KT P6SM SCT018 BKN035
      TEMPO 2518/2520 4SM -SHRA BKN018
     FM260000 22011G20KT P6SM VCSH BKN040
      TEMPO 2600/2603 4SM SHRA BKN025
     FM260300 20008KT 5SM HZ SCT025 BKN080
     FM260700 21006KT 5SM HZ SCT007 BKN018
      TEMPO 2609/2613 3SM BR BKN007
     FM261400 21009KT P6SM SCT030=

USA.gov is the U.S. government's official web portal to all federal, state and local government web resources and services.